Terminal Aerodrome Forecast
Issued by NWS

Home | Current Version | Previous Version | Text Only | Print | Product List | Glossary On
Versions: 1 2 3 4 5 6 7 8 9 10 11 12 13 14 15 16 17 18 19 20 21 22 23
000
FTUS46 KSEW 162000 AAA
TAFSEA
TAF AMD
KSEA 162052Z 1621/1724 20011KT P6SM -RA FEW012 BKN025 OVC050
      TEMPO 1621/1624 FEW012 BKN035 OVC050
     FM170000 20011KT P6SM -RA FEW018 BKN035 OVC060
     FM170600 17008KT 5SM -RA BR FEW009 OVC020
     FM171800 20013KT P6SM -RA SCT015 OVC028=

USA.gov is the U.S. government's official web portal to all federal, state and local government web resources and services.